createdAt,value
2022-10-18T00:00:37.316Z,1013.88
2022-10-18T00:01:37.307Z,1013.85
2022-10-18T00:02:37.296Z,1013.9
2022-10-18T00:03:37.300Z,1013.85
2022-10-18T00:04:37.299Z,1013.89
2022-10-18T00:05:37.268Z,1013.85
2022-10-18T00:06:37.256Z,1013.86
2022-10-18T00:07:37.243Z,1013.91
2022-10-18T00:08:37.235Z,1013.87
2022-10-18T00:09:37.230Z,1013.83
2022-10-18T00:10:37.231Z,1013.9
2022-10-18T00:11:37.204Z,1013.83
2022-10-18T00:12:37.190Z,1013.86
2022-10-18T00:13:37.179Z,1013.89
2022-10-18T00:14:37.174Z,1013.86
2022-10-18T00:15:37.175Z,1013.91
2022-10-18T00:16:37.149Z,1013.9
2022-10-18T00:17:37.154Z,1013.88
2022-10-18T00:18:37.137Z,1013.83
2022-10-18T00:19:37.115Z,1013.87
2022-10-18T00:20:37.106Z,1013.87
2022-10-18T00:21:37.103Z,1013.88
2022-10-18T00:22:37.086Z,1013.88
2022-10-18T00:23:37.117Z,1013.85
2022-10-18T00:24:37.064Z,1013.79
2022-10-18T00:25:37.055Z,1013.84
2022-10-18T00:26:37.041Z,1013.85
2022-10-18T00:27:37.033Z,1013.87
2022-10-18T00:28:37.020Z,1013.85
2022-10-18T00:29:37.015Z,1013.87
2022-10-18T00:30:36.998Z,1013.89
2022-10-18T00:31:36.992Z,1013.9
2022-10-18T00:32:37.012Z,1013.88
2022-10-18T00:33:36.993Z,1013.93
2022-10-18T00:34:36.951Z,1013.92
2022-10-18T00:35:36.940Z,1013.93
2022-10-18T00:36:36.929Z,1013.96
2022-10-18T00:37:36.919Z,1013.99
2022-10-18T00:38:36.948Z,1013.99
2022-10-18T00:39:36.904Z,1014.02
2022-10-18T00:40:36.893Z,1013.97
2022-10-18T00:41:36.871Z,1014.15
2022-10-18T00:42:36.893Z,1014.13
2022-10-18T00:43:36.867Z,1014.09
2022-10-18T00:44:36.852Z,1014.11
2022-10-18T00:45:36.825Z,1014.1
2022-10-18T00:46:36.813Z,1014.12
2022-10-18T00:47:36.817Z,1014.08
2022-10-18T00:48:36.791Z,1014.08
2022-10-18T00:49:36.806Z,1014.08
2022-10-18T00:50:36.775Z,1014.05
2022-10-18T00:51:36.761Z,1014.04
2022-10-18T00:52:36.749Z,1014.12
2022-10-18T00:53:36.742Z,1014.08
2022-10-18T00:54:36.728Z,1014.03
2022-10-18T00:55:36.716Z,1014.03
2022-10-18T00:56:36.728Z,1014.03
2022-10-18T00:57:36.696Z,1014.01
2022-10-18T00:58:36.703Z,1014.01
2022-10-18T00:59:36.687Z,1013.98
2022-10-18T01:00:36.671Z,1013.83
2022-10-18T01:01:36.656Z,1013.82
2022-10-18T01:02:36.643Z,1013.82
2022-10-18T01:03:36.636Z,1013.81
2022-10-18T01:04:36.626Z,1013.75
2022-10-18T01:05:36.610Z,1013.78
2022-10-18T01:06:36.619Z,1013.75
2022-10-18T01:07:36.607Z,1013.77
2022-10-18T01:08:36.579Z,1013.72
2022-10-18T01:09:36.577Z,1013.73
2022-10-18T01:10:36.558Z,1013.7
2022-10-18T01:11:36.546Z,1013.7
2022-10-18T01:12:36.543Z,1013.67
2022-10-18T01:13:36.527Z,1013.69
2022-10-18T01:14:36.521Z,1013.68
2022-10-18T01:15:36.507Z,1013.64
2022-10-18T01:16:36.507Z,1013.64
2022-10-18T01:17:36.485Z,1013.61
2022-10-18T01:18:36.476Z,1013.66
2022-10-18T01:19:36.460Z,1013.64
2022-10-18T01:20:36.461Z,1013.65
2022-10-18T01:21:36.444Z,1013.69
2022-10-18T01:22:36.442Z,1013.63
2022-10-18T01:23:36.439Z,1013.65
2022-10-18T01:24:36.415Z,1013.6
2022-10-18T01:25:36.397Z,1013.63
2022-10-18T01:26:36.388Z,1013.61
2022-10-18T01:27:36.375Z,1013.55
2022-10-18T01:28:36.368Z,1013.59
2022-10-18T01:29:36.361Z,1013.59
2022-10-18T01:30:36.359Z,1013.58
2022-10-18T01:31:36.338Z,1013.6
2022-10-18T01:32:36.342Z,1013.56
2022-10-18T01:33:36.315Z,1013.55
2022-10-18T01:34:36.305Z,1013.59
2022-10-18T01:35:36.307Z,1013.51
2022-10-18T01:36:36.281Z,1013.52
2022-10-18T01:37:36.270Z,1013.54
2022-10-18T01:38:36.262Z,1013.5
2022-10-18T01:39:36.252Z,1013.52
2022-10-18T01:40:36.237Z,1013.52
2022-10-18T01:41:36.237Z,1013.5
2022-10-18T01:42:36.219Z,1013.51
2022-10-18T01:43:36.205Z,1013.48
2022-10-18T01:44:36.196Z,1013.44
2022-10-18T01:45:36.187Z,1013.51
2022-10-18T01:46:36.182Z,1013.47
2022-10-18T01:47:36.173Z,1013.45
2022-10-18T01:48:36.153Z,1013.49
2022-10-18T01:49:36.143Z,1013.46
2022-10-18T01:50:36.128Z,1013.45
2022-10-18T01:51:36.120Z,1013.41
2022-10-18T01:52:36.109Z,1013.38
2022-10-18T01:53:36.102Z,1013.32
2022-10-18T01:54:36.107Z,1013.36
2022-10-18T01:55:36.073Z,1013.3
2022-10-18T01:56:36.065Z,1013.34
2022-10-18T01:57:36.054Z,1013.38
2022-10-18T01:58:36.050Z,1013.32
2022-10-18T01:59:36.033Z,1013.34
2022-10-18T02:00:36.023Z,1013.36
2022-10-18T02:01:36.018Z,1013.38
2022-10-18T02:02:36.000Z,1013.36
2022-10-18T02:03:35.986Z,1013.39
2022-10-18T02:04:35.987Z,1013.46
2022-10-18T02:05:35.966Z,1013.34
2022-10-18T02:06:35.954Z,1013.3
2022-10-18T02:07:35.974Z,1013.3
2022-10-18T02:08:35.934Z,1013.38
2022-10-18T02:09:35.926Z,1013.34
2022-10-18T02:10:35.937Z,1013.31
2022-10-18T02:11:35.944Z,1013.39
2022-10-18T02:12:35.897Z,1013.41
2022-10-18T02:13:35.880Z,1013.34
2022-10-18T02:14:35.870Z,1013.46
2022-10-18T02:15:35.902Z,1013.39
2022-10-18T02:16:35.851Z,1013.4
2022-10-18T02:17:35.851Z,1013.37
2022-10-18T02:18:35.833Z,1013.41
2022-10-18T02:19:35.818Z,1013.37
2022-10-18T02:20:35.865Z,1013.41
2022-10-18T02:21:35.810Z,1013.3
2022-10-18T02:22:35.782Z,1013.33
2022-10-18T02:23:35.777Z,1013.33
2022-10-18T02:24:35.772Z,1013.35
2022-10-18T02:25:35.752Z,1013.25
2022-10-18T02:26:35.745Z,1013.31
2022-10-18T02:27:35.746Z,1013.35
2022-10-18T02:28:35.720Z,1013.37
2022-10-18T02:29:35.711Z,1013.37
2022-10-18T02:30:35.700Z,1013.39
2022-10-18T02:31:35.687Z,1013.37
2022-10-18T02:32:35.685Z,1013.4
2022-10-18T02:33:35.681Z,1013.41
2022-10-18T02:34:35.660Z,1013.43
2022-10-18T02:35:35.650Z,1013.38
2022-10-18T02:36:35.633Z,1013.46
2022-10-18T02:37:35.623Z,1013.44
2022-10-18T02:38:35.618Z,1013.48
2022-10-18T02:39:35.601Z,1013.4
2022-10-18T02:40:35.592Z,1013.46
2022-10-18T02:41:35.587Z,1013.4
2022-10-18T02:42:35.567Z,1013.43
2022-10-18T02:43:35.556Z,1013.43
2022-10-18T02:44:35.556Z,1013.47
2022-10-18T02:45:35.532Z,1013.44
2022-10-18T02:46:35.527Z,1013.42
2022-10-18T02:47:35.518Z,1013.4
2022-10-18T02:48:35.502Z,1013.4
2022-10-18T02:49:35.493Z,1013.46
2022-10-18T02:50:35.482Z,1013.36
2022-10-18T02:51:35.469Z,1013.43
2022-10-18T02:52:35.456Z,1013.37
2022-10-18T02:53:35.448Z,1013.4
2022-10-18T02:54:35.436Z,1013.38
2022-10-18T02:55:35.427Z,1013.39
2022-10-18T02:56:35.422Z,1013.34
2022-10-18T02:57:35.403Z,1013.37
2022-10-18T02:58:35.394Z,1013.31
2022-10-18T02:59:35.381Z,1013.29
2022-10-18T03:00:35.365Z,1013.3
2022-10-18T03:01:35.364Z,1013.27
2022-10-18T03:02:35.344Z,1013.28
2022-10-18T03:03:35.337Z,1013.25
2022-10-18T03:04:35.325Z,1013.24
2022-10-18T03:05:35.311Z,1013.24
2022-10-18T03:06:35.304Z,1013.23
2022-10-18T03:07:35.297Z,1013.25
2022-10-18T03:08:35.298Z,1013.19
2022-10-18T03:09:35.269Z,1013.17
2022-10-18T03:10:35.263Z,1013.2
2022-10-18T03:11:35.246Z,1013.18
2022-10-18T03:12:35.234Z,1013.2
2022-10-18T03:13:35.228Z,1013.19
2022-10-18T03:14:35.217Z,1013.22
2022-10-18T03:15:35.205Z,1013.2
2022-10-18T03:16:35.193Z,1013.2
2022-10-18T03:17:35.185Z,1013.19
2022-10-18T03:18:35.173Z,1013.21
2022-10-18T03:19:35.169Z,1013.21
2022-10-18T03:20:35.173Z,1013.22
2022-10-18T03:21:35.139Z,1013.21
2022-10-18T03:22:35.131Z,1013.17
2022-10-18T03:23:35.116Z,1013.12
2022-10-18T03:24:35.111Z,1013.13
2022-10-18T03:25:35.104Z,1013.18
2022-10-18T03:26:35.105Z,1013.17
2022-10-18T03:27:35.079Z,1013.16
2022-10-18T03:28:35.065Z,1013.19
2022-10-18T03:29:35.050Z,1013.15
2022-10-18T03:30:35.050Z,1013.19
2022-10-18T03:31:35.058Z,1013.17
2022-10-18T03:32:35.021Z,1013.14
2022-10-18T03:33:35.030Z,1013.09
2022-10-18T03:34:34.999Z,1013.08
2022-10-18T03:35:34.994Z,1013.14
2022-10-18T03:36:34.990Z,1013.14
2022-10-18T03:37:34.978Z,1013.15
2022-10-18T03:38:34.955Z,1013.09
2022-10-18T03:39:34.949Z,1013.08
2022-10-18T03:40:34.951Z,1013.1
2022-10-18T03:41:34.924Z,1013.04
2022-10-18T03:42:34.911Z,1013.15
2022-10-18T03:43:34.900Z,1013.06
2022-10-18T03:44:34.889Z,1013.08
2022-10-18T03:45:34.875Z,1013.16
2022-10-18T03:46:34.868Z,1013.09
2022-10-18T03:47:34.859Z,1013.08
2022-10-18T03:48:34.862Z,1013.1
2022-10-18T03:49:34.832Z,1013.06
2022-10-18T03:50:34.823Z,1013.12
2022-10-18T03:51:34.817Z,1013.2
2022-10-18T03:52:34.802Z,1013.15
2022-10-18T03:53:34.792Z,1013.17
2022-10-18T03:54:34.793Z,1013.21
2022-10-18T03:55:34.769Z,1013.2
2022-10-18T03:56:34.759Z,1013.11
2022-10-18T03:57:34.779Z,1013.1
2022-10-18T03:59:34.727Z,1013.04
2022-10-18T04:00:34.769Z,1013.08
2022-10-18T04:01:34.702Z,1013.03
2022-10-18T04:02:34.709Z,1013.12
2022-10-18T04:03:34.681Z,1012.98
2022-10-18T04:04:34.675Z,1013.04
2022-10-18T04:05:34.664Z,1012.95
2022-10-18T04:06:34.650Z,1013.1
2022-10-18T04:07:34.641Z,1013.08
2022-10-18T04:08:34.625Z,1013.07
2022-10-18T04:09:34.617Z,1013.03
2022-10-18T04:10:34.634Z,1013.06
2022-10-18T04:11:34.621Z,1013.1
2022-10-18T04:12:34.615Z,1013.03
2022-10-18T04:13:34.622Z,1013.07
2022-10-18T04:14:34.635Z,1013.04
2022-10-18T04:15:34.551Z,1013.02
2022-10-18T04:17:34.525Z,1013.06
2022-10-18T04:18:34.524Z,1013.01
2022-10-18T04:19:34.518Z,1013.03
2022-10-18T04:20:34.498Z,1013.05
2022-10-18T04:21:34.481Z,1013.03
2022-10-18T04:22:34.477Z,1013.06
2022-10-18T04:23:34.468Z,1012.99
2022-10-18T04:24:34.452Z,1012.99
2022-10-18T04:25:34.437Z,1013.03
2022-10-18T04:26:34.427Z,1012.98
2022-10-18T04:27:34.421Z,1013.01
2022-10-18T04:28:34.412Z,1013.04
2022-10-18T04:29:34.397Z,1013.1
2022-10-18T04:30:34.385Z,1013.15
2022-10-18T04:31:34.372Z,1013.15
2022-10-18T04:32:34.367Z,1013.18
2022-10-18T04:33:34.357Z,1013.18
2022-10-18T04:34:34.350Z,1013.21
2022-10-18T04:35:34.335Z,1013.25
2022-10-18T04:36:34.321Z,1013.22
2022-10-18T04:37:34.315Z,1013.17
2022-10-18T04:38:34.310Z,1013.14
2022-10-18T04:39:34.305Z,1013.2
2022-10-18T04:40:34.281Z,1013.17
2022-10-18T04:41:34.267Z,1013.18
2022-10-18T04:42:34.259Z,1013.16
2022-10-18T04:43:34.248Z,1013.24
2022-10-18T04:44:34.235Z,1013.19
2022-10-18T04:45:34.233Z,1013.22
2022-10-18T04:46:41.852Z,1013.19
2022-10-18T04:47:41.768Z,1013.15
2022-10-18T04:48:41.768Z,1013.22
2022-10-18T04:49:41.763Z,1013.19
2022-10-18T04:50:41.781Z,1013.21
2022-10-18T04:51:41.769Z,1013.19
2022-10-18T04:52:41.731Z,1013.2
2022-10-18T04:53:41.726Z,1013.21
2022-10-18T04:54:34.128Z,1013.16
2022-10-18T04:55:41.701Z,1013.16
2022-10-18T04:56:42.710Z,1013.25
2022-10-18T04:57:41.719Z,1013.23
2022-10-18T04:58:41.679Z,1013.2
2022-10-18T04:59:41.685Z,1013.22
2022-10-18T05:00:41.655Z,1013.25
2022-10-18T05:01:34.055Z,1013.24
2022-10-18T05:02:42.638Z,1013.21
2022-10-18T05:03:34.057Z,1013.26
2022-10-18T05:04:41.629Z,1013.25
2022-10-18T05:05:34.016Z,1013.26
2022-10-18T05:06:41.594Z,1013.27
2022-10-18T05:07:33.999Z,1013.23
2022-10-18T05:08:33.998Z,1013.24
2022-10-18T05:09:41.578Z,1013.24
2022-10-18T05:10:33.958Z,1013.21
2022-10-18T05:11:33.942Z,1013.25
2022-10-18T05:12:33.936Z,1013.21
2022-10-18T05:13:33.928Z,1013.24
2022-10-18T05:14:33.923Z,1013.24
2022-10-18T05:15:33.901Z,1013.21
2022-10-18T05:16:33.905Z,1013.2
2022-10-18T05:17:33.877Z,1013.28
2022-10-18T05:18:41.515Z,1013.25
2022-10-18T05:19:41.551Z,1013.28
2022-10-18T05:20:41.454Z,1013.26
2022-10-18T05:21:41.419Z,1013.25
2022-10-18T05:22:33.825Z,1013.24
2022-10-18T05:23:33.811Z,1013.22
2022-10-18T05:24:41.403Z,1013.24
2022-10-18T05:25:33.802Z,1013.22
2022-10-18T05:26:33.780Z,1013.25
2022-10-18T05:27:33.768Z,1013.22
2022-10-18T05:28:41.320Z,1013.21
2022-10-18T05:29:41.312Z,1013.19
2022-10-18T05:30:41.324Z,1013.22
2022-10-18T05:31:42.354Z,1013.17
2022-10-18T05:32:41.325Z,1013.25
2022-10-18T05:33:41.323Z,1013.2
2022-10-18T05:34:41.330Z,1013.25
2022-10-18T05:35:41.299Z,1013.3
2022-10-18T05:36:41.279Z,1013.26
2022-10-18T05:37:33.673Z,1013.27
2022-10-18T05:38:41.233Z,1013.26
2022-10-18T05:39:33.660Z,1013.23
2022-10-18T05:40:33.629Z,1013.26
2022-10-18T05:41:33.628Z,1013.28
2022-10-18T05:42:33.633Z,1013.3
2022-10-18T05:43:33.596Z,1013.28
2022-10-18T05:44:33.594Z,1013.37
2022-10-18T05:45:33.587Z,1013.39
2022-10-18T05:46:33.561Z,1013.35
2022-10-18T05:48:33.554Z,1013.32
2022-10-18T05:49:33.534Z,1013.32
2022-10-18T05:50:33.529Z,1013.32
2022-10-18T05:52:52.800Z,1013.29
2022-10-18T05:54:01.475Z,1013.35
2022-10-18T05:55:01.538Z,1013.28
2022-10-18T05:55:52.757Z,1013.35
2022-10-18T05:57:01.623Z,1013.38
2022-10-18T05:59:05.757Z,1013.39
2022-10-18T06:00:13.869Z,1013.42
2022-10-18T06:01:17.775Z,1013.43
2022-10-18T06:03:24.441Z,1013.39
2022-10-18T06:04:33.389Z,1013.4
2022-10-18T06:06:47.306Z,1013.38
2022-10-18T06:07:47.170Z,1013.37
2022-10-18T06:08:47.174Z,1013.38
2022-10-18T06:09:47.162Z,1013.42
2022-10-18T06:10:47.149Z,1013.4
2022-10-18T06:11:47.170Z,1013.42
2022-10-18T06:12:47.111Z,1013.46
2022-10-18T06:13:47.106Z,1013.44
2022-10-18T06:14:47.098Z,1013.54
2022-10-18T06:15:47.083Z,1013.54
2022-10-18T06:16:47.075Z,1013.5
2022-10-18T06:17:47.072Z,1013.58
2022-10-18T06:18:47.070Z,1013.58
2022-10-18T06:19:47.081Z,1013.58
2022-10-18T06:20:47.065Z,1013.59
2022-10-18T06:21:48.020Z,1013.55
2022-10-18T06:22:47.006Z,1013.6
2022-10-18T06:23:46.988Z,1013.63
2022-10-18T06:24:46.977Z,1013.62
2022-10-18T06:25:46.976Z,1013.61
2022-10-18T06:26:46.951Z,1013.64
2022-10-18T06:27:46.943Z,1013.65
2022-10-18T06:28:46.941Z,1013.63
2022-10-18T06:29:46.921Z,1013.63
2022-10-18T06:30:46.914Z,1013.63
2022-10-18T06:31:46.899Z,1013.63
2022-10-18T06:32:46.889Z,1013.65
2022-10-18T06:33:46.884Z,1013.61
2022-10-18T06:34:46.876Z,1013.62
2022-10-18T06:35:46.853Z,1013.63
2022-10-18T06:36:46.839Z,1013.65
2022-10-18T06:37:46.837Z,1013.62
2022-10-18T06:38:46.825Z,1013.64
2022-10-18T06:39:46.809Z,1013.63
2022-10-18T06:40:46.813Z,1013.6
2022-10-18T06:41:46.836Z,1013.59
2022-10-18T06:42:46.781Z,1013.63
2022-10-18T06:43:46.771Z,1013.63
2022-10-18T06:44:46.760Z,1013.58
2022-10-18T06:45:46.751Z,1013.57
2022-10-18T06:46:46.744Z,1013.58
2022-10-18T06:47:46.727Z,1013.6
2022-10-18T06:48:46.723Z,1013.64
2022-10-18T06:49:46.722Z,1013.63
2022-10-18T06:50:46.715Z,1013.68
2022-10-18T06:51:46.688Z,1013.67
2022-10-18T06:52:46.671Z,1013.67
2022-10-18T06:53:46.663Z,1013.69
2022-10-18T06:54:46.653Z,1013.74
2022-10-18T06:55:46.645Z,1013.73
2022-10-18T06:56:46.633Z,1013.73
2022-10-18T06:57:46.631Z,1013.73
2022-10-18T06:58:46.614Z,1013.72
2022-10-18T06:59:46.595Z,1013.76
2022-10-18T07:00:46.592Z,1013.73
2022-10-18T07:01:46.578Z,1013.7
2022-10-18T07:02:46.595Z,1013.66
2022-10-18T07:03:46.555Z,1013.72
2022-10-18T07:04:46.544Z,1013.75
2022-10-18T07:05:46.543Z,1013.77
2022-10-18T07:06:46.531Z,1013.76
2022-10-18T07:07:46.514Z,1013.81
2022-10-18T07:08:46.502Z,1013.78
2022-10-18T07:09:46.516Z,1013.82
2022-10-18T07:10:46.480Z,1013.82
2022-10-18T07:11:46.469Z,1013.86
2022-10-18T07:12:46.467Z,1013.82
2022-10-18T07:13:46.454Z,1013.86
2022-10-18T07:14:46.452Z,1013.85
2022-10-18T07:15:46.439Z,1013.87
2022-10-18T07:16:46.421Z,1013.91
2022-10-18T07:17:46.419Z,1013.9
2022-10-18T07:18:46.406Z,1013.95
2022-10-18T07:19:46.384Z,1013.9
2022-10-18T07:20:46.374Z,1013.97
2022-10-18T07:21:46.367Z,1013.93
2022-10-18T07:22:46.378Z,1013.9
2022-10-18T07:23:46.349Z,1013.88
2022-10-18T07:24:46.363Z,1013.92
2022-10-18T07:25:46.335Z,1013.87
2022-10-18T07:26:46.329Z,1013.95
2022-10-18T07:27:46.328Z,1013.86
2022-10-18T07:28:46.290Z,1013.83
2022-10-18T07:29:46.319Z,1013.87
2022-10-18T07:30:46.279Z,1013.9
2022-10-18T07:31:46.261Z,1013.88
2022-10-18T07:32:46.254Z,1013.92
2022-10-18T07:33:46.247Z,1013.93
2022-10-18T07:34:46.228Z,1013.99
2022-10-18T07:35:46.222Z,1013.91
2022-10-18T07:36:46.207Z,1013.93
2022-10-18T07:37:46.202Z,1013.94
2022-10-18T07:38:46.189Z,1013.97
2022-10-18T07:39:46.182Z,1013.95
2022-10-18T07:40:46.170Z,1013.93
2022-10-18T07:41:46.161Z,1013.97
2022-10-18T07:42:46.147Z,1014.01
2022-10-18T07:43:46.154Z,1014.03
2022-10-18T07:44:46.130Z,1014.05
2022-10-18T07:45:46.123Z,1014.09
2022-10-18T07:46:46.108Z,1014.13
2022-10-18T07:47:46.099Z,1014.08
2022-10-18T07:48:46.094Z,1014.05
2022-10-18T07:49:46.078Z,1014.03
2022-10-18T07:50:46.064Z,1014.05
2022-10-18T07:51:46.060Z,1014.11
2022-10-18T07:52:46.040Z,1014.11
2022-10-18T07:53:46.030Z,1014.15
2022-10-18T07:54:46.020Z,1014.19
2022-10-18T07:55:46.039Z,1014.18
2022-10-18T07:56:46.011Z,1014.17
2022-10-18T07:57:45.992Z,1014.21
2022-10-18T07:58:45.986Z,1014.11
2022-10-18T07:59:45.967Z,1014.16
2022-10-18T08:00:45.979Z,1014.18
2022-10-18T08:01:45.962Z,1014.23
2022-10-18T08:02:45.938Z,1014.24
2022-10-18T08:03:45.937Z,1014.24
2022-10-18T08:04:45.932Z,1014.3
2022-10-18T08:05:45.905Z,1014.27
2022-10-18T08:06:45.913Z,1014.32
2022-10-18T08:07:45.890Z,1014.29
2022-10-18T08:08:45.912Z,1014.29
2022-10-18T08:09:45.863Z,1014.33
2022-10-18T08:10:45.853Z,1014.29
2022-10-18T08:11:45.852Z,1014.3
2022-10-18T08:12:45.836Z,1014.3
2022-10-18T08:13:45.824Z,1014.33
2022-10-18T08:14:45.910Z,1014.3
2022-10-18T08:15:45.807Z,1014.35
2022-10-18T08:16:45.786Z,1014.37
2022-10-18T08:17:45.782Z,1014.36
2022-10-18T08:18:45.776Z,1014.38
2022-10-18T08:19:45.759Z,1014.34
2022-10-18T08:20:45.765Z,1014.29
2022-10-18T08:21:45.737Z,1014.29
2022-10-18T08:22:45.729Z,1014.35
2022-10-18T08:23:45.751Z,1014.3
2022-10-18T08:24:45.704Z,1014.27
2022-10-18T08:25:45.695Z,1014.29
2022-10-18T08:26:45.690Z,1014.26
2022-10-18T08:27:45.677Z,1014.3
2022-10-18T08:28:45.680Z,1014.29
2022-10-18T08:29:45.669Z,1014.38
2022-10-18T08:30:45.641Z,1014.37
2022-10-18T08:31:45.639Z,1014.39
2022-10-18T08:32:45.625Z,1014.52
2022-10-18T08:33:45.607Z,1014.46
2022-10-18T08:34:45.594Z,1014.48
2022-10-18T08:35:45.592Z,1014.47
2022-10-18T08:36:45.593Z,1014.48
2022-10-18T08:37:45.571Z,1014.43
2022-10-18T08:38:45.557Z,1014.44
2022-10-18T08:39:45.563Z,1014.45
2022-10-18T08:40:45.548Z,1014.47
2022-10-18T08:41:45.581Z,1014.47
2022-10-18T08:42:45.547Z,1014.49
2022-10-18T08:43:45.501Z,1014.52
2022-10-18T08:44:45.496Z,1014.49
2022-10-18T08:45:45.480Z,1014.53
2022-10-18T08:46:45.475Z,1014.51
2022-10-18T08:47:45.474Z,1014.49
2022-10-18T08:48:45.448Z,1014.47
2022-10-18T08:49:45.449Z,1014.43
2022-10-18T08:50:45.424Z,1014.42
2022-10-18T08:51:45.418Z,1014.43
2022-10-18T08:52:45.403Z,1014.49
2022-10-18T08:53:45.411Z,1014.49
2022-10-18T08:54:45.391Z,1014.43
2022-10-18T08:55:45.375Z,1014.46
2022-10-18T08:56:45.359Z,1014.43
2022-10-18T08:57:45.350Z,1014.46
2022-10-18T08:58:45.339Z,1014.43
2022-10-18T08:59:45.322Z,1014.39
2022-10-18T09:00:45.346Z,1014.42
2022-10-18T09:01:45.302Z,1014.51
2022-10-18T09:02:45.294Z,1014.49
2022-10-18T09:03:45.280Z,1014.45
2022-10-18T09:04:45.270Z,1014.47
2022-10-18T09:05:45.257Z,1014.43
2022-10-18T09:06:45.250Z,1014.42
2022-10-18T09:07:45.239Z,1014.4
2022-10-18T09:08:45.239Z,1014.41
2022-10-18T09:09:45.218Z,1014.46
2022-10-18T09:10:45.398Z,1014.45
2022-10-18T09:11:52.848Z,1014.44
2022-10-18T09:12:45.197Z,1014.48
2022-10-18T09:13:45.187Z,1014.52
2022-10-18T09:14:45.161Z,1014.57
2022-10-18T09:15:45.175Z,1014.6
2022-10-18T09:16:45.142Z,1014.65
2022-10-18T09:17:45.242Z,1014.65
2022-10-18T09:18:45.119Z,1014.65
2022-10-18T09:19:45.116Z,1014.63
2022-10-18T09:20:45.110Z,1014.6
2022-10-18T09:21:45.131Z,1014.64
2022-10-18T09:22:45.134Z,1014.57
2022-10-18T09:23:45.080Z,1014.61
2022-10-18T09:24:45.055Z,1014.62
2022-10-18T09:25:45.079Z,1014.6
2022-10-18T09:26:45.046Z,1014.61
2022-10-18T09:27:45.023Z,1014.63
2022-10-18T09:28:45.032Z,1014.68
2022-10-18T09:29:44.999Z,1014.68
2022-10-18T09:30:44.989Z,1014.67
2022-10-18T09:31:44.992Z,1014.62
2022-10-18T09:32:44.971Z,1014.66
2022-10-18T09:33:44.977Z,1014.66
2022-10-18T09:34:45.004Z,1014.66
2022-10-18T09:35:44.999Z,1014.64
2022-10-18T09:36:45.068Z,1014.64
2022-10-18T09:37:44.939Z,1014.64
2022-10-18T09:38:44.913Z,1014.65
2022-10-18T09:39:44.930Z,1014.68
2022-10-18T09:40:44.888Z,1014.64
2022-10-18T09:41:44.886Z,1014.65
2022-10-18T09:42:44.873Z,1014.7
2022-10-18T09:43:44.893Z,1014.7
2022-10-18T09:44:45.641Z,1014.74
2022-10-18T09:45:44.834Z,1014.73
2022-10-18T09:46:44.832Z,1014.76
2022-10-18T09:47:44.851Z,1014.7
2022-10-18T09:48:44.806Z,1014.75
2022-10-18T09:49:44.804Z,1014.72
2022-10-18T09:50:44.782Z,1014.71
2022-10-18T09:51:44.774Z,1014.7
2022-10-18T09:52:44.768Z,1014.7
2022-10-18T09:53:44.785Z,1014.79
2022-10-18T09:54:44.742Z,1014.76
2022-10-18T09:55:44.733Z,1014.78
2022-10-18T09:56:44.717Z,1014.85
2022-10-18T09:57:44.705Z,1014.8
2022-10-18T09:58:44.731Z,1014.74
2022-10-18T09:59:44.699Z,1014.81
2022-10-18T10:00:44.675Z,1014.81
2022-10-18T10:01:44.676Z,1014.76
2022-10-18T10:02:44.652Z,1014.79
2022-10-18T10:03:44.666Z,1014.81
2022-10-18T10:04:44.633Z,1014.78
2022-10-18T10:05:44.624Z,1014.8
2022-10-18T10:06:44.640Z,1014.8
2022-10-18T10:07:44.599Z,1014.85
2022-10-18T10:08:44.611Z,1014.86
2022-10-18T10:09:44.581Z,1014.76
2022-10-18T10:10:44.569Z,1014.8
2022-10-18T10:11:44.560Z,1014.77
2022-10-18T10:12:44.552Z,1014.73
2022-10-18T10:13:44.536Z,1014.75
2022-10-18T10:14:44.531Z,1014.76
2022-10-18T10:15:44.515Z,1014.79
2022-10-18T10:16:44.505Z,1014.79
2022-10-18T10:17:44.503Z,1014.91
2022-10-18T10:18:44.487Z,1014.87
2022-10-18T10:19:44.470Z,1014.91
2022-10-18T10:20:44.472Z,1014.84
2022-10-18T10:21:44.454Z,1014.84
2022-10-18T10:22:44.491Z,1014.86
2022-10-18T10:23:44.435Z,1014.83
2022-10-18T10:24:44.417Z,1014.84
2022-10-18T10:25:44.480Z,1014.79
2022-10-18T10:26:44.399Z,1014.9
2022-10-18T10:27:44.388Z,1014.91
2022-10-18T10:28:44.401Z,1014.94
2022-10-18T10:29:44.365Z,1014.88
2022-10-18T10:30:44.355Z,1014.82
2022-10-18T10:31:44.347Z,1014.92
2022-10-18T10:32:44.341Z,1014.84
2022-10-18T10:33:44.336Z,1014.97
2022-10-18T10:34:44.349Z,1014.9
2022-10-18T10:35:44.305Z,1014.93
2022-10-18T10:36:44.299Z,1014.91
2022-10-18T10:37:44.286Z,1014.9
2022-10-18T10:38:44.343Z,1014.92
2022-10-18T10:39:44.272Z,1014.87
2022-10-18T10:40:45.141Z,1014.86
2022-10-18T10:41:44.301Z,1014.88
2022-10-18T10:42:44.235Z,1014.96
2022-10-18T10:43:44.223Z,1014.94
2022-10-18T10:44:44.230Z,1014.91
2022-10-18T10:45:44.217Z,1014.93
2022-10-18T10:46:44.203Z,1014.88
2022-10-18T10:47:44.219Z,1014.86
2022-10-18T10:48:44.173Z,1014.86
2022-10-18T10:49:44.165Z,1014.8
2022-10-18T10:50:44.153Z,1014.79
2022-10-18T10:51:44.145Z,1014.83
2022-10-18T10:52:44.132Z,1014.92
2022-10-18T10:53:44.127Z,1014.92
2022-10-18T10:54:44.107Z,1014.91
2022-10-18T10:55:44.101Z,1014.91
2022-10-18T10:56:44.093Z,1014.86
2022-10-18T10:57:44.082Z,1014.82
2022-10-18T10:58:44.068Z,1014.8
2022-10-18T10:59:44.065Z,1014.86
2022-10-18T11:00:44.042Z,1014.86
2022-10-18T11:01:44.032Z,1014.86
2022-10-18T11:02:44.024Z,1014.91
2022-10-18T11:03:44.022Z,1014.84
2022-10-18T11:04:44.001Z,1014.87
2022-10-18T11:05:44.018Z,1014.9
2022-10-18T11:06:43.983Z,1014.89
2022-10-18T11:07:43.974Z,1014.92
2022-10-18T11:08:44.010Z,1014.92
2022-10-18T11:09:44.641Z,1014.92
2022-10-18T11:10:43.944Z,1014.93
2022-10-18T11:11:43.928Z,1014.9
2022-10-18T11:12:43.940Z,1014.87
2022-10-18T11:13:43.907Z,1014.91
2022-10-18T11:14:43.919Z,1014.91
2022-10-18T11:15:43.889Z,1014.91
2022-10-18T11:16:43.879Z,1014.93
2022-10-18T11:17:43.916Z,1014.95
2022-10-18T11:18:43.861Z,1014.89
2022-10-18T11:19:43.848Z,1014.92
2022-10-18T11:20:43.855Z,1014.9
2022-10-18T11:21:43.824Z,1014.82
2022-10-18T11:22:43.813Z,1014.86
2022-10-18T11:23:43.803Z,1014.91
2022-10-18T11:24:43.801Z,1014.9
2022-10-18T11:25:43.835Z,1014.83
2022-10-18T11:26:43.770Z,1014.88
2022-10-18T11:27:43.766Z,1014.88
2022-10-18T11:28:43.748Z,1014.86
2022-10-18T11:29:43.752Z,1014.87
2022-10-18T11:30:43.731Z,1014.84
2022-10-18T11:31:43.716Z,1014.86
2022-10-18T11:32:43.711Z,1014.84
2022-10-18T11:33:43.697Z,1014.81
2022-10-18T11:34:43.686Z,1014.88
2022-10-18T11:35:43.698Z,1014.9
2022-10-18T11:36:43.669Z,1014.95
2022-10-18T11:37:43.653Z,1014.89
2022-10-18T11:38:43.649Z,1014.85
2022-10-18T11:39:43.637Z,1014.86
2022-10-18T11:40:43.626Z,1014.87
2022-10-18T11:41:43.617Z,1014.86
2022-10-18T11:42:43.601Z,1014.81
2022-10-18T11:43:43.597Z,1014.82
2022-10-18T11:44:43.582Z,1014.82
2022-10-18T11:45:43.583Z,1014.87
2022-10-18T11:46:43.561Z,1014.89
2022-10-18T11:47:43.560Z,1014.92
2022-10-18T11:48:43.539Z,1014.76
2022-10-18T11:49:43.540Z,1014.59
2022-10-18T11:50:43.520Z,1014.67
2022-10-18T11:51:43.508Z,1014.72
2022-10-18T11:52:43.494Z,1014.6
2022-10-18T11:53:43.524Z,1014.59
2022-10-18T11:54:43.472Z,1014.57
2022-10-18T11:55:43.462Z,1014.55
2022-10-18T11:56:43.457Z,1014.59
2022-10-18T11:57:43.443Z,1014.57
2022-10-18T11:58:43.429Z,1014.53
2022-10-18T11:59:43.421Z,1014.64
2022-10-18T12:00:43.414Z,1014.59
2022-10-18T12:01:43.402Z,1014.59
2022-10-18T12:02:43.393Z,1014.64
2022-10-18T12:03:43.384Z,1014.63
2022-10-18T12:04:43.364Z,1014.55
2022-10-18T12:05:43.358Z,1014.55
2022-10-18T12:06:43.350Z,1014.52
2022-10-18T12:07:43.336Z,1014.73
2022-10-18T12:08:43.332Z,1014.71
2022-10-18T12:09:43.313Z,1014.45
2022-10-18T12:10:43.306Z,1014.49
2022-10-18T12:11:43.290Z,1014.5
2022-10-18T12:12:43.283Z,1014.45
2022-10-18T12:13:43.274Z,1014.5
2022-10-18T12:14:43.260Z,1014.45
2022-10-18T12:15:43.253Z,1014.4
2022-10-18T12:16:43.259Z,1014.78